Creola, Ohio
Current Conditions -  °F | °C
As of 2:35 PM on Friday 31 Oct 2014 (Local Time) from KUNI Reporting Station
Drizzle Drizzle  
Wind Chill: 45°   Ceiling: 3000
Heat Index: 45°   Visibility: 10mi
Dew Point: 40°   Wind: 3mph
Humidity: 84%   Direction: 240°WSW
Pressure: 29.87"   Gusts: NA
Location:  39.32°N, 82.47°W
Report Text: KUNI 311835Z AUTO 24003KT 10SM -DZ OVC030 07/05 A2987 RMK AO2 T00730047
Loading
Personal Weather Stations






























Interactive Weather Map
Tropical Storm Tracking
New forecast layout! Learn more

10-Day Weather Forecast

Advertisements
Track Severe Weather on mobile